GORO2: Illinois River, Gore, OK

Data processed at Sat Jul 14 2018 23:34


All information presented herein is the property of the government of the United States of America and may be revised or deleted at any time without prior notice.
Dissemination of this information without the expressed written consent of the Public Affairs Office, Tulsa District U.S. Army Corps of Engineers is strictly prohibited.
These data are gathered electronically and, as presented, have not undergone any form of quality control. These data are not guaranteed to be valid or correct.
Go to home page.
Go to station list.

Upstream stations:

Downstream station:
Previous Day
Next Day
Current Day
    
SHEF ID:       GORO2     Illinois River near Gore, OK
STATION TYPE:  

               PRECIP PRECIP(A)     STAGE  STAGE(2)  RIV-FLOW  WTR-TEMP   DIS-OXY   VOLTAGE  BAT-LOAD
                   in        in        ft        ft       cfs         F      mg/l      volt      volt
              Ccp-Rev   Ccp-Rev   Ccp-Rev   Ccp-Rev   Ccp-Rev   Ccp-Rev   Ccp-Rev   Ccp-Rev   Ccp-Rev
(US/Central)
07/12 00:00      0.00      ----      6.92      9.73       163     60.55      7.13      ----     12.77
07/12 01:00      0.00      ----      6.88      9.72       153     60.60      7.15      ----     12.77
07/12 02:00      0.00      ----      6.84      9.72       143     60.58      7.02      ----     12.77
07/12 03:00      0.00      ----      6.82      9.72       138     60.58      7.08      ----     12.71
07/12 04:00      0.00      ----      6.81      9.72       135     60.57      7.01      ----     12.71
07/12 05:00      0.00      ----      6.79      9.72       130     60.44      7.13      ----     12.71
07/12 06:00      0.00      ----      6.78      9.72       128     60.21      7.29      ----     12.71
07/12 07:00      0.00      ----      6.77      9.72       125     60.12      7.31      ----     12.71
07/12 08:00      0.00      ----      6.76      9.72       123     60.24      7.47      ----     12.71
07/12 09:00      0.00      ----      6.75      9.72       120     61.11      8.26      ----     12.77
07/12 10:00      0.00      ----      6.75      9.72       120     62.65      9.26      ----     12.83
07/12 11:00      0.00      ----      6.74      9.72       118     64.31      9.88      ----     13.00
07/12 12:00      0.00      ----      6.74      9.72       118     66.27     10.65      ----      ----
07/12 13:00      0.00      ----      6.74      9.72       118     67.28     10.59      ----      ----
07/12 14:00      0.00      ----      6.73      9.72       116     68.50     10.34      ----      ----
07/12 15:00      0.00      ----      9.04      9.72      1172     65.68     12.10      ----      ----
07/12 16:00      0.00      ----     11.53      9.73      3843     60.58      7.43      ----      ----
07/12 17:00      0.00      ----     11.75      9.73      4163     59.56      6.90      ----      ----
07/12 18:00      0.00      ----     11.81      9.73      4253     59.22      6.77      ----      ----
07/12 19:00      0.00      ----      9.94      9.73      1908     59.63      6.92      ----      ----
07/12 20:00      0.00      ----      8.04      9.73       581     60.06      7.46      ----     12.83
07/12 21:00      0.00      ----      7.50      9.73       351     60.40      7.69      ----     12.83
07/12 22:00      0.00      ----      7.36      9.73       300     60.37      7.78      ----     12.77
07/12 23:00      0.00      ----      7.30      9.73       278     60.28      7.97      ----     12.77